createdAt,value
2022-09-26T00:01:35.921Z,9.20
2022-09-26T00:04:31.783Z,9.00
2022-09-26T00:07:15.265Z,9.10
2022-09-26T00:10:02.540Z,8.90
2022-09-26T00:12:50.133Z,9.00
2022-09-26T00:15:37.494Z,8.90
2022-09-26T00:18:25.324Z,9.00
2022-09-26T00:21:15.172Z,8.80
2022-09-26T00:24:03.251Z,8.70
2022-09-26T00:26:50.835Z,8.80
2022-09-26T00:29:39.224Z,8.60
2022-09-26T00:32:26.619Z,8.60
2022-09-26T00:35:14.022Z,8.70
2022-09-26T00:38:01.583Z,8.70
2022-09-26T00:40:50.503Z,8.70
2022-09-26T00:43:41.152Z,8.70
2022-09-26T00:46:43.504Z,8.50
2022-09-26T00:49:36.946Z,8.40
2022-09-26T00:52:30.176Z,8.30
2022-09-26T00:55:21.070Z,8.30
2022-09-26T00:58:14.344Z,8.20
2022-09-26T01:01:02.191Z,8.10
2022-09-26T01:03:51.032Z,8.00
2022-09-26T01:06:38.618Z,8.00
2022-09-26T01:09:28.296Z,8.10
2022-09-26T01:12:17.558Z,8.10
2022-09-26T01:15:08.481Z,8.10
2022-09-26T01:17:55.940Z,8.10
2022-09-26T01:21:01.501Z,8.10
2022-09-26T01:24:16.095Z,8.10
2022-09-26T01:27:33.813Z,8.00
2022-09-26T01:30:25.837Z,8.00
2022-09-26T01:33:28.399Z,8.00
2022-09-26T01:36:18.565Z,8.00
2022-09-26T01:39:33.557Z,8.00
2022-09-26T01:42:42.184Z,8.10
2022-09-26T01:45:32.426Z,8.00
2022-09-26T01:48:34.869Z,8.10
2022-09-26T01:51:40.348Z,8.00
2022-09-26T01:54:30.601Z,8.10
2022-09-26T01:57:20.969Z,7.90
2022-09-26T02:00:12.633Z,8.00
2022-09-26T02:03:00.863Z,8.00
2022-09-26T02:05:51.230Z,8.00
2022-09-26T02:08:41.956Z,8.00
2022-09-26T02:11:29.957Z,7.90
2022-09-26T02:14:28.795Z,7.80
2022-09-26T02:17:20.167Z,7.80
2022-09-26T02:20:14.879Z,7.90
2022-09-26T02:23:05.940Z,7.90
2022-09-26T02:25:53.914Z,8.00
2022-09-26T02:28:41.874Z,8.00
2022-09-26T02:31:32.433Z,8.00
2022-09-26T02:34:19.622Z,8.10
2022-09-26T02:37:07.532Z,8.00
2022-09-26T02:39:56.200Z,7.90
2022-09-26T02:42:52.779Z,7.80
2022-09-26T02:45:52.258Z,7.60
2022-09-26T02:49:00.439Z,7.60
2022-09-26T02:51:54.385Z,7.60
2022-09-26T02:54:47.709Z,7.70
2022-09-26T02:57:53.033Z,7.70
2022-09-26T03:00:55.752Z,7.50
2022-09-26T03:03:47.094Z,7.40
2022-09-26T03:06:37.469Z,7.60
2022-09-26T03:09:26.576Z,7.60
2022-09-26T03:12:16.785Z,7.50
2022-09-26T03:15:06.740Z,7.60
2022-09-26T03:17:57.517Z,7.80
2022-09-26T03:20:44.988Z,8.00
2022-09-26T03:23:32.262Z,7.90
2022-09-26T03:26:24.300Z,8.00
2022-09-26T03:29:11.582Z,8.10
2022-09-26T03:32:01.041Z,8.20
2022-09-26T03:34:48.572Z,8.30
2022-09-26T03:37:37.249Z,8.40
2022-09-26T03:40:24.650Z,8.40
2022-09-26T03:43:12.284Z,8.20
2022-09-26T03:46:05.399Z,8.10
2022-09-26T03:48:52.886Z,8.10
2022-09-26T03:51:40.121Z,8.10
2022-09-26T03:54:27.715Z,8.00
2022-09-26T03:57:16.588Z,8.20
2022-09-26T04:00:06.432Z,8.30
2022-09-26T04:02:53.703Z,8.50
2022-09-26T04:05:41.080Z,8.60
2022-09-26T04:08:28.695Z,8.70
2022-09-26T04:11:19.489Z,8.80
2022-09-26T04:14:07.314Z,8.90
2022-09-26T04:16:54.525Z,9.00
2022-09-26T04:19:42.033Z,9.10
2022-09-26T04:22:29.580Z,9.20
2022-09-26T04:25:17.157Z,9.30
2022-09-26T04:28:04.121Z,9.40
2022-09-26T04:30:51.703Z,9.50
2022-09-26T04:33:40.077Z,9.60
2022-09-26T04:36:27.284Z,9.70
2022-09-26T04:39:14.777Z,9.90
2022-09-26T04:42:03.057Z,10.00
2022-09-26T04:44:50.594Z,10.10
2022-09-26T04:47:37.888Z,10.20
2022-09-26T04:50:25.170Z,10.20
2022-09-26T04:53:12.461Z,10.20
2022-09-26T04:55:59.658Z,10.20
2022-09-26T04:58:47.736Z,10.30
2022-09-26T05:01:35.096Z,10.40
2022-09-26T05:04:27.328Z,10.40
2022-09-26T05:07:11.214Z,10.50
2022-09-26T05:09:58.663Z,10.50
2022-09-26T05:12:46.439Z,10.50
2022-09-26T05:15:35.382Z,10.50
2022-09-26T05:18:25.326Z,10.60
2022-09-26T05:21:12.285Z,10.60
2022-09-26T05:24:17.650Z,10.60
2022-09-26T05:27:07.797Z,10.60
2022-09-26T05:29:55.772Z,10.60
2022-09-26T05:32:44.950Z,10.40
2022-09-26T05:35:34.085Z,10.50
2022-09-26T05:38:21.629Z,10.50
2022-09-26T05:41:08.968Z,10.50
2022-09-26T05:43:56.466Z,10.50
2022-09-26T05:46:43.922Z,10.40
2022-09-26T05:49:32.789Z,10.40
2022-09-26T05:52:19.927Z,10.50
2022-09-26T05:55:07.341Z,10.60
2022-09-26T05:57:58.447Z,10.70
2022-09-26T06:00:47.574Z,10.80
2022-09-26T06:03:35.620Z,10.90
2022-09-26T06:06:23.036Z,10.90
2022-09-26T06:09:10.529Z,10.90
2022-09-26T06:11:57.878Z,11.00
2022-09-26T06:14:46.674Z,11.20
2022-09-26T06:17:34.253Z,11.20
2022-09-26T06:20:22.085Z,11.20
2022-09-26T06:23:09.483Z,11.40
2022-09-26T06:25:57.103Z,11.60
2022-09-26T06:28:44.747Z,11.60
2022-09-26T06:31:32.796Z,11.50
2022-09-26T06:34:20.065Z,11.40
2022-09-26T06:37:07.781Z,11.30
2022-09-26T06:39:59.220Z,11.30
2022-09-26T06:42:45.309Z,11.40
2022-09-26T06:45:32.596Z,11.60
2022-09-26T06:48:24.675Z,11.70
2022-09-26T06:51:13.966Z,11.70
2022-09-26T06:54:01.532Z,11.80
2022-09-26T06:56:48.975Z,11.80
2022-09-26T06:59:36.476Z,11.80
2022-09-26T07:02:25.277Z,12.00
2022-09-26T07:05:15.041Z,12.10
2022-09-26T07:08:03.118Z,12.20
2022-09-26T07:10:50.575Z,12.30
2022-09-26T07:13:38.988Z,12.40
2022-09-26T07:16:27.347Z,12.30
2022-09-26T07:19:16.023Z,12.30
2022-09-26T07:22:03.561Z,12.30
2022-09-26T07:24:51.103Z,12.40
2022-09-26T07:27:40.066Z,12.30
2022-09-26T07:30:28.307Z,12.20
2022-09-26T07:33:15.598Z,12.20
2022-09-26T07:36:05.432Z,12.40
2022-09-26T07:38:52.044Z,12.60
2022-09-26T07:41:39.200Z,12.60
2022-09-26T07:45:36.534Z,12.70
2022-09-26T07:47:34.375Z,12.60
2022-09-26T07:50:21.779Z,12.80
2022-09-26T07:53:09.544Z,12.80
2022-09-26T07:56:12.546Z,13.10
2022-09-26T07:59:01.405Z,13.30
2022-09-26T08:01:49.125Z,13.30
2022-09-26T08:04:36.509Z,13.40
2022-09-26T08:07:24.509Z,13.30
2022-09-26T08:10:21.123Z,13.40
2022-09-26T08:13:08.526Z,13.00
2022-09-26T08:15:56.508Z,12.60
2022-09-26T08:18:43.717Z,12.40
2022-09-26T08:21:31.278Z,12.50
2022-09-26T08:24:18.477Z,12.40
2022-09-26T08:27:06.221Z,12.50
2022-09-26T08:29:54.094Z,12.60
2022-09-26T08:32:41.426Z,12.50
2022-09-26T08:35:31.449Z,12.60
2022-09-26T08:38:18.833Z,12.50
2022-09-26T08:41:25.111Z,12.40
2022-09-26T08:44:32.078Z,12.40
2022-09-26T08:47:25.881Z,12.50
2022-09-26T08:50:42.229Z,12.70
2022-09-26T08:53:38.337Z,13.00
2022-09-26T08:56:31.679Z,13.10
2022-09-26T08:59:30.949Z,13.10
2022-09-26T09:02:30.205Z,13.30
2022-09-26T09:05:23.913Z,13.60
2022-09-26T09:08:18.455Z,13.70
2022-09-26T09:11:25.735Z,13.90
2022-09-26T09:14:25.304Z,14.00
2022-09-26T09:17:24.375Z,14.30
2022-09-26T09:20:19.701Z,14.70
2022-09-26T09:23:13.351Z,14.50
2022-09-26T09:29:19.561Z,14.80
2022-09-26T09:32:09.396Z,14.50
2022-09-26T09:34:57.815Z,14.60
2022-09-26T09:37:51.060Z,14.50
2022-09-26T09:41:09.001Z,14.50
2022-09-26T09:44:00.154Z,14.70
2022-09-26T09:46:49.256Z,15.40
2022-09-26T09:49:36.607Z,15.50
2022-09-26T09:52:40.580Z,15.40
2022-09-26T09:55:49.960Z,15.30
2022-09-26T09:58:46.430Z,15.20
2022-09-26T10:01:37.363Z,15.10
2022-09-26T10:04:30.996Z,15.00
2022-09-26T10:07:18.272Z,15.20
2022-09-26T10:10:07.616Z,15.60
2022-09-26T10:12:56.906Z,15.90
2022-09-26T10:15:47.509Z,16.20
2022-09-26T10:18:36.542Z,16.20
2022-09-26T10:21:31.469Z,16.10
2022-09-26T10:24:24.662Z,16.00
2022-09-26T10:27:27.712Z,15.90
2022-09-26T10:30:28.088Z,15.80
2022-09-26T10:33:30.785Z,15.50
2022-09-26T10:36:24.215Z,15.20
2022-09-26T10:39:38.936Z,15.20
2022-09-26T10:42:29.968Z,15.30
2022-09-26T10:45:20.419Z,15.50
2022-09-26T10:48:08.004Z,15.70
2022-09-26T10:51:01.336Z,16.10
2022-09-26T10:53:53.074Z,16.20
2022-09-26T10:56:43.891Z,16.00
2022-09-26T10:59:34.816Z,16.00
2022-09-26T11:02:28.107Z,16.10
2022-09-26T11:05:35.495Z,16.00
2022-09-26T11:08:31.241Z,16.00
2022-09-26T11:11:22.467Z,15.60
2022-09-26T11:14:10.383Z,15.80
2022-09-26T11:16:59.625Z,15.60
2022-09-26T11:19:58.693Z,15.30
2022-09-26T11:22:47.625Z,15.30
2022-09-26T11:25:39.203Z,15.40
2022-09-26T11:28:31.209Z,15.50
2022-09-26T11:31:31.212Z,15.40
2022-09-26T11:34:26.841Z,15.30
2022-09-26T11:37:17.352Z,15.50
2022-09-26T11:40:11.066Z,15.40
2022-09-26T11:43:28.820Z,15.60
2022-09-26T11:46:31.481Z,15.70
2022-09-26T11:49:30.579Z,16.00
2022-09-26T11:52:52.880Z,16.20
2022-09-26T11:55:55.175Z,16.20
2022-09-26T11:58:46.581Z,16.40
2022-09-26T12:01:49.987Z,16.40
2022-09-26T12:05:01.600Z,16.40
2022-09-26T12:08:08.482Z,16.10
2022-09-26T12:11:05.399Z,16.30
2022-09-26T12:14:28.915Z,15.90
2022-09-26T12:17:37.543Z,16.10
2022-09-26T12:20:44.798Z,16.00
2022-09-26T12:23:48.316Z,16.00
2022-09-26T12:26:54.673Z,16.30
2022-09-26T12:29:55.267Z,16.00
2022-09-26T12:32:48.677Z,16.10
2022-09-26T12:35:43.927Z,16.10
2022-09-26T12:38:52.025Z,16.40
2022-09-26T12:42:03.314Z,16.60
2022-09-26T12:45:13.361Z,16.60
2022-09-26T12:48:09.375Z,16.50
2022-09-26T12:51:08.860Z,16.40
2022-09-26T12:54:33.069Z,16.30
2022-09-26T12:57:37.194Z,16.50
2022-09-26T13:00:25.269Z,16.20
2022-09-26T13:03:18.391Z,16.30
2022-09-26T13:06:27.347Z,15.80
2022-09-26T13:09:44.555Z,15.70
2022-09-26T13:12:47.004Z,15.30
2022-09-26T13:15:37.478Z,15.00
2022-09-26T13:18:35.703Z,15.00
2022-09-26T13:21:26.010Z,15.10
2022-09-26T13:24:29.855Z,15.20
2022-09-26T13:27:21.055Z,15.50
2022-09-26T13:30:15.582Z,15.30
2022-09-26T13:33:21.094Z,15.40
2022-09-26T13:36:10.588Z,15.30
2022-09-26T13:39:27.998Z,15.40
2022-09-26T13:42:18.174Z,15.40
2022-09-26T13:45:11.611Z,15.40
2022-09-26T13:48:08.256Z,15.50
2022-09-26T13:50:58.632Z,15.60
2022-09-26T13:53:50.126Z,15.60
2022-09-26T13:56:41.111Z,15.70
2022-09-26T13:59:34.644Z,15.70
2022-09-26T14:02:29.658Z,15.70
2022-09-26T14:05:44.958Z,15.70
2022-09-26T14:08:52.727Z,15.60
2022-09-26T14:11:48.573Z,15.50
2022-09-26T14:14:41.716Z,15.50
2022-09-26T14:17:44.334Z,15.30
2022-09-26T14:20:34.762Z,15.30
2022-09-26T14:23:41.873Z,15.30
2022-09-26T14:26:31.345Z,15.40
2022-09-26T14:29:30.868Z,15.50
2022-09-26T14:32:21.260Z,15.60
2022-09-26T14:35:20.633Z,15.50
2022-09-26T14:38:16.989Z,15.50
2022-09-26T14:41:04.547Z,15.50
2022-09-26T14:43:52.911Z,15.60
2022-09-26T14:46:42.303Z,15.70
2022-09-26T14:49:30.061Z,15.50
2022-09-26T14:52:20.080Z,15.60
2022-09-26T14:55:08.883Z,15.70
2022-09-26T14:58:16.300Z,15.70
2022-09-26T15:01:06.147Z,15.80
2022-09-26T15:04:03.106Z,15.70
2022-09-26T15:06:53.197Z,15.50
2022-09-26T15:09:52.241Z,15.30
2022-09-26T15:12:46.002Z,15.20
2022-09-26T15:15:57.725Z,15.20
2022-09-26T15:18:51.015Z,15.30
2022-09-26T15:21:41.546Z,15.40
2022-09-26T15:24:35.395Z,15.40
2022-09-26T15:27:29.532Z,15.30
2022-09-26T15:30:29.139Z,15.30
2022-09-26T15:33:19.743Z,15.30
2022-09-26T15:36:07.125Z,15.20
2022-09-26T15:38:54.414Z,15.20
2022-09-26T15:42:02.780Z,15.20
2022-09-26T15:44:58.125Z,15.10
2022-09-26T15:47:46.012Z,15.10
2022-09-26T15:50:40.218Z,15.10
2022-09-26T15:53:45.862Z,15.10
2022-09-26T15:56:44.925Z,15.00
2022-09-26T15:59:40.007Z,15.00
2022-09-26T16:02:28.117Z,15.00
2022-09-26T16:05:16.305Z,14.90
2022-09-26T16:08:03.824Z,14.90
2022-09-26T16:11:00.382Z,14.80
2022-09-26T16:13:50.021Z,14.70
2022-09-26T16:16:37.561Z,14.80
2022-09-26T16:19:31.438Z,14.80
2022-09-26T16:22:37.006Z,14.70
2022-09-26T16:25:34.308Z,14.80
2022-09-26T16:28:22.656Z,14.70
2022-09-26T16:31:16.120Z,14.70
2022-09-26T16:34:05.359Z,14.70
2022-09-26T16:36:52.772Z,14.70
2022-09-26T16:39:41.145Z,14.60
2022-09-26T16:42:32.812Z,14.70
2022-09-26T16:45:20.689Z,14.70
2022-09-26T16:48:09.416Z,14.70
2022-09-26T16:51:17.673Z,14.60
2022-09-26T16:54:11.746Z,14.60
2022-09-26T16:56:58.786Z,14.60
2022-09-26T16:59:46.530Z,14.50
2022-09-26T17:02:35.663Z,14.50
2022-09-26T17:05:23.288Z,14.40
2022-09-26T17:08:11.600Z,14.30
2022-09-26T17:11:04.442Z,14.10
2022-09-26T17:13:51.834Z,14.10
2022-09-26T17:16:38.897Z,14.10
2022-09-26T17:19:29.556Z,14.20
2022-09-26T17:22:19.269Z,14.20
2022-09-26T17:25:07.463Z,14.30
2022-09-26T17:27:59.073Z,14.20
2022-09-26T17:30:47.805Z,14.00
2022-09-26T17:33:39.149Z,13.90
2022-09-26T17:36:28.823Z,13.80
2022-09-26T17:39:23.184Z,13.90
2022-09-26T17:42:11.215Z,13.80
2022-09-26T17:44:58.271Z,13.70
2022-09-26T17:47:45.659Z,13.70
2022-09-26T17:50:35.412Z,13.70
2022-09-26T17:53:24.310Z,13.70
2022-09-26T17:56:12.661Z,13.80
2022-09-26T17:59:00.156Z,13.70
2022-09-26T18:01:49.745Z,13.60
2022-09-26T18:04:37.162Z,13.70
2022-09-26T18:07:24.476Z,13.50
2022-09-26T18:10:15.321Z,13.50
2022-09-26T18:13:12.108Z,13.50
2022-09-26T18:15:58.447Z,13.60
2022-09-26T18:18:45.880Z,13.40
2022-09-26T18:21:34.874Z,13.40
2022-09-26T18:24:24.065Z,13.40
2022-09-26T18:27:14.641Z,13.50
2022-09-26T18:30:01.836Z,13.40
2022-09-26T18:32:52.946Z,13.40
2022-09-26T18:35:41.866Z,13.40
2022-09-26T18:38:28.885Z,13.30
2022-09-26T18:41:18.252Z,13.30
2022-09-26T18:44:07.706Z,13.20
2022-09-26T18:46:59.516Z,12.90
2022-09-26T18:49:46.595Z,12.90
2022-09-26T18:52:34.689Z,12.70
2022-09-26T18:55:42.799Z,12.80
2022-09-26T18:58:32.171Z,12.70
2022-09-26T19:01:28.415Z,12.70
2022-09-26T19:04:21.766Z,12.70
2022-09-26T19:07:12.994Z,12.70
2022-09-26T19:10:01.033Z,12.70
2022-09-26T19:12:48.357Z,12.70
2022-09-26T19:15:35.873Z,12.60
2022-09-26T19:18:23.069Z,12.70
2022-09-26T19:21:32.233Z,12.70
2022-09-26T19:24:22.579Z,12.60
2022-09-26T19:27:16.211Z,12.60
2022-09-26T19:30:09.742Z,12.50
2022-09-26T19:32:58.046Z,12.50
2022-09-26T19:35:47.046Z,12.60
2022-09-26T19:38:34.568Z,12.60
2022-09-26T19:41:22.154Z,12.60
2022-09-26T19:44:09.784Z,12.50
2022-09-26T19:46:59.033Z,12.50
2022-09-26T19:49:51.850Z,12.40
2022-09-26T19:52:39.353Z,12.40
2022-09-26T19:55:29.391Z,12.50
2022-09-26T19:58:19.868Z,12.50
2022-09-26T20:01:19.335Z,12.40
2022-09-26T20:04:15.122Z,12.50
2022-09-26T20:07:02.513Z,12.30
2022-09-26T20:09:56.753Z,12.20
2022-09-26T20:12:44.907Z,12.20
2022-09-26T20:15:32.984Z,12.20
2022-09-26T20:18:23.204Z,12.20
2022-09-26T20:21:12.926Z,12.20
2022-09-26T20:24:01.013Z,12.20
2022-09-26T20:26:48.928Z,12.20
2022-09-26T20:29:38.055Z,12.20
2022-09-26T20:32:26.057Z,12.20
2022-09-26T20:35:16.492Z,12.10
2022-09-26T20:38:07.185Z,12.10
2022-09-26T20:41:03.509Z,12.10
2022-09-26T20:43:55.446Z,12.00
2022-09-26T20:46:45.694Z,12.10
2022-09-26T20:49:36.022Z,12.10
2022-09-26T20:52:27.697Z,12.10
2022-09-26T20:55:18.027Z,12.10
2022-09-26T20:58:07.394Z,12.00
2022-09-26T21:00:54.967Z,12.00
2022-09-26T21:03:45.366Z,11.90
2022-09-26T21:06:34.957Z,12.00
2022-09-26T21:09:22.127Z,12.00
2022-09-26T21:12:14.909Z,11.90
2022-09-26T21:15:02.192Z,11.80
2022-09-26T21:17:50.955Z,11.90
2022-09-26T21:20:38.333Z,11.80
2022-09-26T21:23:25.684Z,11.90
2022-09-26T21:26:16.145Z,11.90
2022-09-26T21:29:06.078Z,11.90
2022-09-26T21:31:56.074Z,11.90
2022-09-26T21:34:45.096Z,11.90
2022-09-26T21:37:32.929Z,11.90
2022-09-26T21:40:22.138Z,12.00
2022-09-26T21:43:12.742Z,11.90
2022-09-26T21:46:00.139Z,12.00
2022-09-26T21:48:47.431Z,12.00
2022-09-26T21:51:36.287Z,12.00
2022-09-26T21:54:30.107Z,12.10
2022-09-26T21:57:26.044Z,12.10
2022-09-26T22:00:15.201Z,12.10
2022-09-26T22:03:02.632Z,12.00
2022-09-26T22:05:50.135Z,12.10
2022-09-26T22:08:39.232Z,12.20
2022-09-26T22:11:26.933Z,12.00
2022-09-26T22:14:14.253Z,12.00
2022-09-26T22:17:01.635Z,12.10
2022-09-26T22:19:50.977Z,12.10
2022-09-26T22:22:38.722Z,12.10
2022-09-26T22:25:25.959Z,12.10
2022-09-26T22:28:13.180Z,12.00
2022-09-26T22:31:05.020Z,12.00
2022-09-26T22:33:52.275Z,12.00
2022-09-26T22:36:39.636Z,11.90
2022-09-26T22:39:26.882Z,11.80
2022-09-26T22:42:14.547Z,11.80
2022-09-26T22:45:02.066Z,11.70
2022-09-26T22:47:49.606Z,11.70
2022-09-26T22:50:37.521Z,11.70
2022-09-26T22:53:25.064Z,11.90
2022-09-26T22:56:14.883Z,12.00
2022-09-26T22:59:03.718Z,12.00
2022-09-26T23:01:51.509Z,12.00
2022-09-26T23:04:47.950Z,12.10
2022-09-26T23:07:35.128Z,12.10
2022-09-26T23:10:22.646Z,12.00
2022-09-26T23:13:09.844Z,12.00
2022-09-26T23:15:57.122Z,12.10
2022-09-26T23:18:45.169Z,12.00
2022-09-26T23:21:32.472Z,11.90
2022-09-26T23:24:19.685Z,11.90
2022-09-26T23:27:07.166Z,11.80
2022-09-26T23:29:55.237Z,11.80
2022-09-26T23:32:42.600Z,11.90
2022-09-26T23:35:29.803Z,12.00
2022-09-26T23:38:17.332Z,12.00
2022-09-26T23:41:07.906Z,11.90
2022-09-26T23:43:55.013Z,11.90
2022-09-26T23:46:42.271Z,11.90
2022-09-26T23:49:29.944Z,11.90
2022-09-26T23:52:17.549Z,11.90
2022-09-26T23:55:05.032Z,11.90
2022-09-26T23:57:52.592Z,11.80
